Isabel, Kansas
Current Conditions -  °F | °C
As of 6:55 PM on Monday 26 Jan 2015 (Local Time) from KPTT Reporting Station
Clear Clear  
Wind Chill: 54°   Ceiling: Unl
Heat Index: 54°   Visibility: 10mi
Dew Point: 32°   Wind: 0mph
Humidity: 44%   Direction: NA
Pressure: 30.09"   Gusts: NA
Location:  37.47°N, 98.55°W
Report Text: KPTT 270055Z AUTO 00000KT 10SM CLR 12/00 A3009 RMK AO2
Loading
Personal Weather Stations






























Interactive Weather Map New forecast layout! Learn more

10-Day Weather Forecast

Advertisements
Track Severe Weather on mobile